createdAt,value
2022-10-30T00:00:25.553Z,9.07
2022-10-30T00:02:52.430Z,9.57
2022-10-30T00:05:20.874Z,12.33
2022-10-30T00:07:50.697Z,9.30
2022-10-30T00:10:18.045Z,9.77
2022-10-30T00:12:44.859Z,8.87
2022-10-30T00:15:12.368Z,9.87
2022-10-30T00:17:39.206Z,9.27
2022-10-30T00:20:06.780Z,12.97
2022-10-30T00:22:35.631Z,12.87
2022-10-30T00:25:03.395Z,11.50
2022-10-30T00:27:30.100Z,12.07
2022-10-30T00:29:56.750Z,11.40
2022-10-30T00:32:31.079Z,11.53
2022-10-30T00:35:00.639Z,11.70
2022-10-30T00:37:34.393Z,11.27
2022-10-30T00:40:15.777Z,11.47
2022-10-30T00:42:50.248Z,10.80
2022-10-30T00:45:27.024Z,10.20
2022-10-30T00:48:06.462Z,10.90
2022-10-30T00:50:46.106Z,10.63
2022-10-30T00:53:18.888Z,10.13
2022-10-30T00:56:02.986Z,9.33
2022-10-30T00:58:44.165Z,14.00
2022-10-30T01:01:26.151Z,10.20
2022-10-30T01:04:01.660Z,11.03
2022-10-30T01:06:34.151Z,11.63
2022-10-30T01:09:09.719Z,9.57
2022-10-30T01:11:44.461Z,10.33
2022-10-30T01:14:21.237Z,9.77
2022-10-30T01:17:25.713Z,9.80
2022-10-30T01:20:48.518Z,12.60
2022-10-30T01:23:32.208Z,10.10
2022-10-30T01:26:35.557Z,11.03
2022-10-30T01:29:15.969Z,9.07
2022-10-30T01:32:24.641Z,9.40
2022-10-30T01:35:37.053Z,9.17
2022-10-30T01:38:16.492Z,11.27
2022-10-30T01:40:51.936Z,12.43
2022-10-30T01:54:09.714Z,9.73
2022-10-30T01:57:01.703Z,12.50
2022-10-30T01:59:45.724Z,9.70
2022-10-30T02:02:13.304Z,13.70
2022-10-30T02:04:40.883Z,10.20
2022-10-30T02:07:07.793Z,12.97
2022-10-30T02:09:34.932Z,10.17
2022-10-30T02:12:02.698Z,11.93
2022-10-30T02:14:34.667Z,14.50
2022-10-30T02:17:04.069Z,13.53
2022-10-30T02:19:30.753Z,10.03
2022-10-30T02:21:57.582Z,11.23
2022-10-30T02:24:24.349Z,11.67
2022-10-30T02:26:51.112Z,14.23
2022-10-30T02:29:20.712Z,12.40
2022-10-30T02:31:47.951Z,10.07
2022-10-30T02:34:15.200Z,10.07
2022-10-30T02:36:42.252Z,9.53
2022-10-30T02:39:09.014Z,12.57
2022-10-30T02:41:35.753Z,12.07
2022-10-30T02:44:02.646Z,14.70
2022-10-30T02:46:29.476Z,11.67
2022-10-30T02:48:56.150Z,10.30
2022-10-30T02:51:22.862Z,10.57
2022-10-30T02:53:49.682Z,10.00
2022-10-30T02:56:17.075Z,8.83
2022-10-30T02:58:43.730Z,9.47
2022-10-30T03:01:19.316Z,11.43
2022-10-30T03:03:46.986Z,12.73
2022-10-30T03:06:16.731Z,15.90
2022-10-30T03:08:43.963Z,10.43
2022-10-30T03:11:15.989Z,10.93
2022-10-30T03:13:45.029Z,8.30
2022-10-30T03:16:18.103Z,7.97
2022-10-30T03:18:45.075Z,8.07
2022-10-30T03:21:15.079Z,8.83
2022-10-30T03:23:42.708Z,11.67
2022-10-30T03:26:10.111Z,11.53
2022-10-30T03:28:36.817Z,9.00
2022-10-30T03:31:06.920Z,11.77
2022-10-30T03:33:34.947Z,12.37
2022-10-30T03:36:02.281Z,7.47
2022-10-30T03:38:28.997Z,7.17
2022-10-30T03:40:56.105Z,8.10
2022-10-30T03:43:23.024Z,9.77
2022-10-30T03:45:52.607Z,9.67
2022-10-30T03:48:20.944Z,8.17
2022-10-30T03:50:47.686Z,9.50
2022-10-30T03:53:14.810Z,8.40
2022-10-30T03:55:41.779Z,7.83
2022-10-30T03:58:08.835Z,10.60
2022-10-30T04:00:36.603Z,9.57
2022-10-30T04:03:07.220Z,10.63
2022-10-30T04:05:34.199Z,12.57
2022-10-30T04:08:03.804Z,9.73
2022-10-30T04:10:30.559Z,9.53
2022-10-30T04:13:05.090Z,10.33
2022-10-30T04:15:32.209Z,9.63
2022-10-30T04:17:59.641Z,10.50
2022-10-30T04:20:28.067Z,9.83
2022-10-30T04:23:03.174Z,11.47
2022-10-30T04:25:30.982Z,10.23
2022-10-30T04:27:58.086Z,10.67
2022-10-30T04:30:27.122Z,12.30
2022-10-30T04:32:57.861Z,10.37
2022-10-30T04:35:30.673Z,11.23
2022-10-30T04:37:59.351Z,11.27
2022-10-30T04:40:28.571Z,11.90
2022-10-30T04:42:55.794Z,15.67
2022-10-30T04:45:23.076Z,11.73
2022-10-30T04:47:49.834Z,9.53
2022-10-30T04:50:17.227Z,11.47
2022-10-30T04:52:43.937Z,9.63
2022-10-30T04:55:11.627Z,11.68
2022-10-30T04:57:38.574Z,14.20
2022-10-30T05:00:07.525Z,13.70
2022-10-30T05:02:37.316Z,16.40
2022-10-30T05:05:04.758Z,15.83
2022-10-30T05:07:31.618Z,11.00
2022-10-30T05:09:58.285Z,15.23
2022-10-30T05:14:52.862Z,10.33
2022-10-30T05:17:19.771Z,10.07
2022-10-30T05:19:46.479Z,10.83
2022-10-30T05:22:13.160Z,10.40
2022-10-30T05:24:39.801Z,15.20
2022-10-30T05:27:06.469Z,20.53
2022-10-30T05:29:33.159Z,13.20
2022-10-30T05:31:59.874Z,11.07
2022-10-30T05:34:26.583Z,15.40
2022-10-30T05:36:53.313Z,12.17
2022-10-30T05:39:19.972Z,32.93
2022-10-30T05:41:46.657Z,24.47
2022-10-30T05:44:13.330Z,21.27
2022-10-30T05:46:46.409Z,16.57
2022-10-30T05:49:17.640Z,16.90
2022-10-30T05:51:44.747Z,16.20
2022-10-30T05:54:12.520Z,11.33
2022-10-30T05:56:42.766Z,15.97
2022-10-30T05:59:10.031Z,12.87
2022-10-30T06:01:41.323Z,15.70
2022-10-30T06:04:09.042Z,15.63
2022-10-30T06:06:36.096Z,11.53
2022-10-30T06:09:03.143Z,14.97
2022-10-30T06:11:30.328Z,11.80
2022-10-30T06:13:57.441Z,8.63
2022-10-30T06:16:24.577Z,9.03
2022-10-30T06:18:51.644Z,17.40
2022-10-30T06:21:28.310Z,12.67
2022-10-30T06:23:55.923Z,14.23
2022-10-30T06:26:28.049Z,14.83
2022-10-30T06:28:55.163Z,16.20
2022-10-30T06:31:22.224Z,16.53
2022-10-30T06:33:49.314Z,12.50
2022-10-30T06:36:17.548Z,10.83
2022-10-30T06:38:44.710Z,15.23
2022-10-30T06:41:11.956Z,10.40
2022-10-30T06:43:39.056Z,10.27
2022-10-30T06:48:34.449Z,14.53
2022-10-30T06:51:02.991Z,7.90
2022-10-30T06:53:30.289Z,9.43
2022-10-30T06:56:01.371Z,9.93
2022-10-30T06:58:29.209Z,11.00
2022-10-30T07:00:56.376Z,8.77
2022-10-30T07:03:23.090Z,10.90
2022-10-30T07:05:49.771Z,11.77
2022-10-30T07:08:16.495Z,12.00
2022-10-30T07:10:43.145Z,13.97
2022-10-30T07:13:09.912Z,13.87
2022-10-30T07:15:39.723Z,10.43
2022-10-30T07:18:06.466Z,12.47
2022-10-30T07:20:34.469Z,9.40
2022-10-30T07:23:02.122Z,8.60
2022-10-30T07:25:29.257Z,9.90
2022-10-30T07:27:57.523Z,8.50
2022-10-30T07:33:02.668Z,10.83
2022-10-30T07:35:30.486Z,8.97
2022-10-30T07:38:02.365Z,8.20
2022-10-30T07:40:29.476Z,8.53
2022-10-30T07:43:00.953Z,10.68
2022-10-30T07:45:28.821Z,8.88
2022-10-30T07:47:56.574Z,9.02
2022-10-30T07:50:24.193Z,6.82
2022-10-30T07:52:51.036Z,5.45
2022-10-30T07:55:17.870Z,4.60
2022-10-30T07:57:44.525Z,5.07
2022-10-30T08:00:13.902Z,4.53
2022-10-30T08:02:41.096Z,4.95
2022-10-30T08:05:09.053Z,5.47
2022-10-30T08:07:37.481Z,6.65
2022-10-30T08:10:05.425Z,6.10
2022-10-30T08:12:33.864Z,5.72
2022-10-30T08:15:00.683Z,5.80
2022-10-30T08:17:27.361Z,6.78
2022-10-30T08:19:54.049Z,5.72
2022-10-30T08:22:20.693Z,5.22
2022-10-30T08:24:47.365Z,8.40
2022-10-30T08:27:14.166Z,5.22
2022-10-30T08:29:41.563Z,4.95
2022-10-30T08:32:08.182Z,6.10
2022-10-30T08:34:35.221Z,7.03
2022-10-30T08:37:01.993Z,7.25
2022-10-30T08:39:28.633Z,4.90
2022-10-30T08:41:58.437Z,7.35
2022-10-30T08:44:25.183Z,5.13
2022-10-30T08:46:51.818Z,5.88
2022-10-30T08:49:18.487Z,5.78
2022-10-30T08:51:46.017Z,5.88
2022-10-30T08:54:12.808Z,6.38
2022-10-30T08:56:39.492Z,7.75
2022-10-30T08:59:06.169Z,5.88
2022-10-30T09:01:32.933Z,5.40
2022-10-30T09:03:59.699Z,6.60
2022-10-30T09:06:26.303Z,5.25
2022-10-30T09:08:52.953Z,5.20
2022-10-30T09:11:19.571Z,7.90
2022-10-30T09:13:46.251Z,9.38
2022-10-30T09:16:12.902Z,4.68
2022-10-30T09:18:39.579Z,7.10
2022-10-30T09:21:06.324Z,5.63
2022-10-30T09:23:33.064Z,7.93
2022-10-30T09:25:59.906Z,9.52
2022-10-30T09:28:26.560Z,6.00
2022-10-30T09:30:56.292Z,8.18
2022-10-30T09:33:23.507Z,8.05
2022-10-30T09:35:50.302Z,11.32
2022-10-30T09:38:16.947Z,7.30
2022-10-30T09:40:46.343Z,6.63
2022-10-30T09:43:36.894Z,6.50
2022-10-30T09:46:25.211Z,8.65
2022-10-30T09:52:14.035Z,10.43
2022-10-30T09:55:10.303Z,7.60
2022-10-30T09:57:48.488Z,7.07
2022-10-30T10:00:23.884Z,8.43
2022-10-30T10:03:18.091Z,10.48
2022-10-30T10:05:56.111Z,9.05
2022-10-30T10:08:29.488Z,8.98
2022-10-30T10:11:02.652Z,11.50
2022-10-30T10:14:01.596Z,10.57
2022-10-30T10:16:31.703Z,10.00
2022-10-30T10:19:20.113Z,11.43
2022-10-30T10:21:48.808Z,7.45
2022-10-30T10:24:22.782Z,8.55
2022-10-30T10:26:55.726Z,9.20
2022-10-30T10:29:45.188Z,8.70
2022-10-30T10:33:01.048Z,8.95
2022-10-30T10:35:31.102Z,10.65
2022-10-30T10:38:43.009Z,10.43
2022-10-30T10:41:21.975Z,11.35
2022-10-30T10:44:20.919Z,15.27
2022-10-30T10:47:06.896Z,9.73
2022-10-30T10:49:55.063Z,13.15
2022-10-30T10:52:37.978Z,9.75
2022-10-30T10:55:38.516Z,9.65
2022-10-30T10:58:33.462Z,7.45
2022-10-30T11:01:00.336Z,9.57
2022-10-30T11:03:37.568Z,10.15
2022-10-30T11:06:21.148Z,10.27
2022-10-30T11:08:48.892Z,9.70
2022-10-30T11:11:15.656Z,11.05
2022-10-30T11:13:44.041Z,10.10
2022-10-30T11:16:37.844Z,9.70
2022-10-30T11:19:08.734Z,11.02
2022-10-30T11:21:43.293Z,8.30
2022-10-30T11:24:36.571Z,15.63
2022-10-30T11:27:30.686Z,9.38
2022-10-30T11:30:03.197Z,11.13
2022-10-30T11:32:32.040Z,10.75
2022-10-30T11:35:07.556Z,10.35
2022-10-30T11:37:36.226Z,11.55
2022-10-30T11:40:11.027Z,11.25
2022-10-30T11:42:43.645Z,10.02
2022-10-30T11:45:17.321Z,10.38
2022-10-30T11:47:44.511Z,16.40
2022-10-30T11:50:21.139Z,13.07
2022-10-30T11:52:54.389Z,12.60
2022-10-30T11:55:37.819Z,15.50
2022-10-30T11:58:06.076Z,10.13
2022-10-30T12:00:36.019Z,9.05
2022-10-30T12:03:06.005Z,10.77
2022-10-30T12:05:44.886Z,8.63
2022-10-30T12:08:18.567Z,9.48
2022-10-30T12:10:56.900Z,12.63
2022-10-30T12:13:24.829Z,13.48
2022-10-30T12:16:06.941Z,11.13
2022-10-30T12:18:34.355Z,8.30
2022-10-30T12:21:03.209Z,15.63
2022-10-30T12:23:31.282Z,11.15
2022-10-30T12:26:00.911Z,12.15
2022-10-30T12:28:31.296Z,11.18
2022-10-30T12:31:01.448Z,9.95
2022-10-30T12:34:01.473Z,13.38
2022-10-30T12:36:37.349Z,7.55
2022-10-30T12:39:17.830Z,11.93
2022-10-30T12:42:02.653Z,8.60
2022-10-30T12:44:42.894Z,6.38
2022-10-30T12:47:20.861Z,12.55
2022-10-30T12:49:54.934Z,14.30
2022-10-30T12:52:36.342Z,10.88
2022-10-30T12:55:05.871Z,14.68
2022-10-30T12:57:37.081Z,10.02
2022-10-30T13:00:10.200Z,7.22
2022-10-30T13:03:00.775Z,9.00
2022-10-30T13:06:07.500Z,8.65
2022-10-30T13:08:58.503Z,15.07
2022-10-30T13:11:58.506Z,9.75
2022-10-30T13:14:45.541Z,9.68
2022-10-30T13:17:13.824Z,11.57
2022-10-30T13:19:44.465Z,10.00
2022-10-30T13:22:16.624Z,10.73
2022-10-30T13:24:52.405Z,10.57
2022-10-30T13:27:58.553Z,11.32
2022-10-30T13:30:31.375Z,11.65
2022-10-30T13:33:23.782Z,10.50
2022-10-30T13:36:11.273Z,11.18
2022-10-30T13:39:02.716Z,12.90
2022-10-30T13:41:57.036Z,9.45
2022-10-30T13:44:42.529Z,10.88
2022-10-30T13:47:25.927Z,10.27
2022-10-30T13:50:13.724Z,9.95
2022-10-30T13:52:50.207Z,9.98
2022-10-30T13:55:25.763Z,7.47
2022-10-30T13:58:40.222Z,11.43
2022-10-30T14:01:23.554Z,11.27
2022-10-30T14:04:17.714Z,12.05
2022-10-30T14:07:15.776Z,9.95
2022-10-30T14:10:02.464Z,12.13
2022-10-30T14:12:57.715Z,8.10
2022-10-30T14:15:32.273Z,6.18
2022-10-30T14:18:13.858Z,9.10
2022-10-30T14:20:50.791Z,10.10
2022-10-30T14:23:36.168Z,9.30
2022-10-30T14:26:05.676Z,12.93
2022-10-30T14:28:35.014Z,8.23
2022-10-30T14:31:06.673Z,8.77
2022-10-30T14:33:55.225Z,11.20
2022-10-30T14:36:24.418Z,13.27
2022-10-30T14:39:09.048Z,10.82
2022-10-30T14:41:53.961Z,10.43
2022-10-30T14:44:58.343Z,6.70
2022-10-30T14:47:40.601Z,7.75
2022-10-30T14:50:25.918Z,15.60
2022-10-30T14:52:53.010Z,7.97
2022-10-30T14:55:31.572Z,9.40
2022-10-30T14:58:01.662Z,13.48
2022-10-30T15:00:30.524Z,11.02
2022-10-30T15:03:12.021Z,6.70
2022-10-30T15:05:51.375Z,6.90
2022-10-30T15:08:24.256Z,8.65
2022-10-30T15:11:14.058Z,6.85
2022-10-30T15:13:51.787Z,9.52
2022-10-30T15:16:20.986Z,8.65
2022-10-30T15:19:12.488Z,7.55
2022-10-30T15:21:49.757Z,8.48
2022-10-30T15:24:18.862Z,8.48
2022-10-30T15:26:49.398Z,7.43
2022-10-30T15:29:20.414Z,8.45
2022-10-30T15:32:01.333Z,6.25
2022-10-30T15:34:29.676Z,11.30
2022-10-30T15:36:56.777Z,8.65
2022-10-30T15:39:24.269Z,8.50
2022-10-30T15:41:57.086Z,10.55
2022-10-30T15:44:37.488Z,8.90
2022-10-30T15:47:11.259Z,9.75
2022-10-30T15:49:41.460Z,6.82
2022-10-30T15:52:24.200Z,10.30
2022-10-30T15:55:05.295Z,9.57
2022-10-30T15:58:06.888Z,8.75
2022-10-30T16:00:36.717Z,7.78
2022-10-30T16:03:10.855Z,9.80
2022-10-30T16:05:37.681Z,9.70
2022-10-30T16:08:14.401Z,7.93
2022-10-30T16:10:42.936Z,12.27
2022-10-30T16:13:30.361Z,17.20
2022-10-30T16:15:57.281Z,13.52
2022-10-30T16:18:26.759Z,15.27
2022-10-30T16:20:56.342Z,10.35
2022-10-30T16:23:23.250Z,11.30
2022-10-30T16:25:58.628Z,9.85
2022-10-30T16:28:29.258Z,15.15
2022-10-30T16:31:02.203Z,12.95
2022-10-30T16:33:30.982Z,10.15
2022-10-30T16:35:59.698Z,11.93
2022-10-30T16:38:29.832Z,10.13
2022-10-30T16:40:56.621Z,12.23
2022-10-30T16:43:33.803Z,12.50
2022-10-30T16:46:15.801Z,14.07
2022-10-30T16:48:53.497Z,8.50
2022-10-30T16:51:21.470Z,13.13
2022-10-30T16:53:50.347Z,12.95
2022-10-30T16:56:27.057Z,9.50
2022-10-30T16:59:06.504Z,13.13
2022-10-30T17:01:33.511Z,11.45
2022-10-30T17:04:02.838Z,12.18
2022-10-30T17:06:44.529Z,12.98
2022-10-30T17:09:28.715Z,11.80
2022-10-30T17:12:12.867Z,12.48
2022-10-30T17:14:56.156Z,16.20
2022-10-30T17:17:30.565Z,12.47
2022-10-30T17:20:07.077Z,12.70
2022-10-30T17:22:34.022Z,17.40
2022-10-30T17:25:01.106Z,24.97
2022-10-30T17:27:36.222Z,23.50
2022-10-30T17:30:04.312Z,25.83
2022-10-30T17:32:44.950Z,20.93
2022-10-30T17:35:19.442Z,22.43
2022-10-30T17:37:46.590Z,20.73
2022-10-30T17:40:14.111Z,15.03
2022-10-30T17:42:41.504Z,14.57
2022-10-30T17:45:14.566Z,15.20
2022-10-30T17:47:41.667Z,18.43
2022-10-30T17:50:08.853Z,16.17
2022-10-30T17:52:35.644Z,16.50
2022-10-30T17:55:02.817Z,16.57
2022-10-30T17:57:29.536Z,15.20
2022-10-30T17:59:56.288Z,17.70
2022-10-30T18:02:23.617Z,17.17
2022-10-30T18:04:52.521Z,18.50
2022-10-30T18:07:19.679Z,15.33
2022-10-30T18:09:46.387Z,20.40
2022-10-30T18:12:15.574Z,20.47
2022-10-30T18:14:45.828Z,13.23
2022-10-30T18:17:12.685Z,17.90
2022-10-30T18:19:39.411Z,23.30
2022-10-30T18:22:06.075Z,21.30
2022-10-30T18:24:32.885Z,20.87
2022-10-30T18:26:59.635Z,24.67
2022-10-30T18:29:26.400Z,22.83
2022-10-30T18:31:53.082Z,15.90
2022-10-30T18:34:24.501Z,12.57
2022-10-30T18:36:51.214Z,8.23
2022-10-30T18:39:19.676Z,14.70
2022-10-30T18:41:47.492Z,13.00
2022-10-30T18:44:19.581Z,10.00
2022-10-30T18:46:46.429Z,14.57
2022-10-30T18:49:13.270Z,14.93
2022-10-30T18:51:40.058Z,16.93
2022-10-30T18:54:16.754Z,14.73
2022-10-30T18:56:43.816Z,17.90
2022-10-30T18:59:10.482Z,17.90
2022-10-30T19:01:37.506Z,17.53
2022-10-30T19:04:09.127Z,17.37
2022-10-30T19:06:38.397Z,17.57
2022-10-30T19:09:05.301Z,17.00
2022-10-30T19:11:37.284Z,13.17
2022-10-30T19:14:11.547Z,24.93
2022-10-30T19:16:38.257Z,21.20
2022-10-30T19:19:05.480Z,18.67
2022-10-30T19:21:34.512Z,13.17
2022-10-30T19:24:12.378Z,10.97
2022-10-30T19:26:39.032Z,10.67
2022-10-30T19:29:05.687Z,9.37
2022-10-30T19:31:32.354Z,15.20
2022-10-30T19:33:59.193Z,25.13
2022-10-30T19:36:35.757Z,26.40
2022-10-30T19:39:20.579Z,29.37
2022-10-30T19:41:47.226Z,22.43
2022-10-30T19:44:13.894Z,24.67
2022-10-30T19:46:40.688Z,20.63
2022-10-30T19:49:27.641Z,20.97
2022-10-30T19:51:54.309Z,18.80
2022-10-30T19:54:21.473Z,21.50
2022-10-30T19:56:48.217Z,22.73
2022-10-30T19:59:15.485Z,19.90
2022-10-30T20:01:44.134Z,24.30
2022-10-30T20:04:11.014Z,20.03
2022-10-30T20:06:37.711Z,18.63
2022-10-30T20:09:05.412Z,19.67
2022-10-30T20:11:32.116Z,14.97
2022-10-30T20:13:58.795Z,21.83
2022-10-30T20:16:25.497Z,26.10
2022-10-30T20:18:52.189Z,30.47
2022-10-30T20:21:19.885Z,20.23
2022-10-30T20:23:46.809Z,22.70
2022-10-30T20:26:28.007Z,23.53
2022-10-30T20:28:55.206Z,23.37
2022-10-30T20:31:22.186Z,39.67
2022-10-30T20:33:48.835Z,46.63
2022-10-30T20:36:15.502Z,25.00
2022-10-30T20:38:42.236Z,31.67
2022-10-30T20:41:21.089Z,29.87
2022-10-30T20:43:50.005Z,20.17
2022-10-30T20:46:16.841Z,31.40
2022-10-30T20:48:43.573Z,21.40
2022-10-30T20:51:11.505Z,24.43
2022-10-30T20:53:38.567Z,20.37
2022-10-30T20:56:05.415Z,18.33
2022-10-30T20:58:32.064Z,21.67
2022-10-30T21:00:59.143Z,35.40
2022-10-30T21:03:27.052Z,22.73
2022-10-30T21:06:01.606Z,23.70
2022-10-30T21:08:31.595Z,22.20
2022-10-30T21:11:02.690Z,27.90
2022-10-30T21:13:29.923Z,24.43
2022-10-30T21:16:01.899Z,27.07
2022-10-30T21:18:28.566Z,19.57
2022-10-30T21:20:59.340Z,21.87
2022-10-30T21:23:25.961Z,26.30
2022-10-30T21:26:03.494Z,20.83
2022-10-30T21:28:30.218Z,22.57
2022-10-30T21:31:05.120Z,39.57
2022-10-30T21:33:33.067Z,34.67
2022-10-30T21:36:12.960Z,29.93
2022-10-30T21:38:41.993Z,25.03
2022-10-30T21:41:10.287Z,28.93
2022-10-30T21:43:36.929Z,26.93
2022-10-30T21:46:08.559Z,17.37
2022-10-30T21:48:35.215Z,22.20
2022-10-30T21:51:09.893Z,24.37
2022-10-30T21:53:37.177Z,23.77
2022-10-30T21:56:13.245Z,20.93
2022-10-30T21:58:39.980Z,16.73
2022-10-30T22:01:07.183Z,20.07
2022-10-30T22:03:33.973Z,18.27
2022-10-30T22:06:06.283Z,10.90
2022-10-30T22:08:33.050Z,17.00
2022-10-30T22:11:10.570Z,14.70
2022-10-30T22:13:38.511Z,12.40
2022-10-30T22:16:07.405Z,11.63
2022-10-30T22:18:34.215Z,10.50
2022-10-30T22:21:03.285Z,9.47
2022-10-30T22:23:30.557Z,11.80
2022-10-30T22:25:59.848Z,11.07
2022-10-30T22:28:28.377Z,14.17
2022-10-30T22:30:55.300Z,12.63
2022-10-30T22:33:22.046Z,13.43
2022-10-30T22:35:48.721Z,31.27
2022-10-30T22:38:15.395Z,19.23
2022-10-30T22:40:42.454Z,15.43
2022-10-30T22:43:09.210Z,16.00
2022-10-30T22:45:35.940Z,13.37
2022-10-30T22:48:02.886Z,11.30
2022-10-30T22:50:29.850Z,15.67
2022-10-30T22:52:59.348Z,10.57
2022-10-30T22:55:27.880Z,13.17
2022-10-30T22:57:54.820Z,10.83
2022-10-30T23:00:27.532Z,15.27
2022-10-30T23:02:54.999Z,17.80
2022-10-30T23:05:22.705Z,10.70
2022-10-30T23:07:51.125Z,15.10
2022-10-30T23:10:17.759Z,16.70
2022-10-30T23:12:44.409Z,15.73
2022-10-30T23:15:11.332Z,16.17
2022-10-30T23:17:37.975Z,10.37
2022-10-30T23:20:06.854Z,19.10
2022-10-30T23:22:33.649Z,13.17
2022-10-30T23:25:00.366Z,18.27
2022-10-30T23:27:27.044Z,17.90
2022-10-30T23:29:53.697Z,12.80
2022-10-30T23:32:20.344Z,10.20
2022-10-30T23:34:47.079Z,11.47
2022-10-30T23:37:13.799Z,10.47
2022-10-30T23:39:40.440Z,10.53
2022-10-30T23:42:07.113Z,12.53
2022-10-30T23:44:33.746Z,10.03
2022-10-30T23:47:00.419Z,10.53
2022-10-30T23:52:02.474Z,12.13
2022-10-30T23:54:29.115Z,9.30
2022-10-30T23:56:55.765Z,9.90
2022-10-30T23:59:22.453Z,14.57
